Pirituba, Brazil
Current Conditions -  °F | °C
As of 1:00 AM on Wednesday 22 Oct 2014 (Local Time) from SBSP Reporting Station
Overcast Overcast  
Wind Chill: 61°   Ceiling: 1200
Heat Index: 61°   Visibility: 6mi
Dew Point: 54°   Wind: 12mph
Humidity: 77%   Direction: 130°SE
Pressure: 30.21"   Gusts: NA
Location:  23.63°S, 47.35°W
Report Text: SBSP 220300Z 13010KT 9999 BKN012 OVC016 16/12 Q1023
Loading
Personal Weather Stations






























Interactive Weather Map
Tropical Storm Tracking
New forecast layout! Learn more

10-Day Weather Forecast

Advertisements
Track Severe Weather on mobile